Time;durP1;ratioP1;P1;durP2;ratioP2;P2;SDS_P1;SDS_P2;PMS_P1;PMS_P2;Temp;Humidity;BMP_temperature;BMP_pressure;BME280_temperature;BME280_humidity;BME280_pressure;Samples;Min_cycle;Max_cycle;Signal;HPM_P1;HPM_P2
2022/11/14 00:00:13;;;;;;;6.37;4.67;;;;;;;22.01;50.99;97543.72;5032187;28;20222;-31
2022/11/14 00:02:40;;;;;;;4.60;4.20;;;;;;;22.01;50.94;97547.16;5025181;28;20240;-31
2022/11/14 00:05:07;;;;;;;4.60;4.20;;;;;;;22.00;51.10;97549.66;5029829;28;20201;-31
2022/11/14 00:07:34;;;;;;;4.70;4.30;;;;;;;22.01;50.91;97538.59;5015312;28;20206;-31
2022/11/14 00:10:00;;;;;;;4.70;4.30;;;;;;;22.01;51.27;97534.34;5027759;28;20198;-32
2022/11/14 00:12:27;;;;;;;4.77;4.27;;;;;;;22.00;51.11;97540.31;5027780;28;20249;-31
2022/11/14 00:14:54;;;;;;;4.70;4.30;;;;;;;22.00;50.53;97537.75;5031230;28;20662;-31
2022/11/14 00:17:21;;;;;;;4.80;4.40;;;;;;;22.00;51.11;97542.88;5023994;28;20213;-31
2022/11/14 00:19:47;;;;;;;4.70;4.30;;;;;;;22.01;50.83;97539.47;5027733;28;20247;-31
2022/11/14 00:22:14;;;;;;;4.60;4.20;;;;;;;22.01;50.73;97541.16;5024015;28;20225;-31
2022/11/14 00:24:40;;;;;;;5.20;4.33;;;;;;;22.01;50.94;97542.03;5027268;28;20268;-32
2022/11/14 00:27:07;;;;;;;5.23;4.73;;;;;;;22.01;50.88;97544.59;5027096;28;20204;-31
2022/11/14 00:29:33;;;;;;;5.20;4.70;;;;;;;22.01;50.69;97547.16;5026818;28;20252;-31
2022/11/14 00:32:00;;;;;;;4.77;4.37;;;;;;;22.01;50.95;97552.28;5026897;28;20210;-31
2022/11/14 00:34:26;;;;;;;4.93;4.53;;;;;;;22.01;50.89;97552.28;5026352;28;20251;-31
2022/11/14 00:36:53;;;;;;;4.53;4.13;;;;;;;22.02;50.84;97548.03;5026137;28;20258;-31
2022/11/14 00:39:19;;;;;;;4.53;4.13;;;;;;;21.96;50.98;97545.31;5023042;28;20209;-31
2022/11/14 00:41:46;;;;;;;5.03;4.53;;;;;;;22.02;51.05;97537.78;5026422;28;20222;-31
2022/11/14 00:44:12;;;;;;;4.60;4.20;;;;;;;22.02;51.08;97542.91;5023752;28;20230;-31
2022/11/14 00:46:39;;;;;;;4.37;3.97;;;;;;;22.01;51.01;97549.72;5027234;28;20234;-31
2022/11/14 00:49:05;;;;;;;4.60;4.20;;;;;;;22.01;51.04;97552.28;5025384;28;20696;-31
2022/11/14 00:51:32;;;;;;;4.97;4.57;;;;;;;22.01;50.92;97552.28;5026537;28;20575;-31
2022/11/14 00:53:59;;;;;;;4.83;4.43;;;;;;;22.01;50.95;97548.84;5022148;28;20217;-31
2022/11/14 00:56:25;;;;;;;4.53;4.13;;;;;;;21.98;50.96;97541.06;5023428;28;20193;-31
2022/11/14 00:58:51;;;;;;;4.83;4.43;;;;;;;21.96;50.92;97537.63;5029660;28;20202;-31
2022/11/14 01:01:18;;;;;;;4.90;4.50;;;;;;;22.00;51.16;97542.88;5023686;28;20230;-31
2022/11/14 01:03:49;;;;;;;5.23;4.73;;;;;;;22.00;50.95;97542.00;5026152;28;20253;-31
2022/11/14 01:06:15;;;;;;;4.37;3.97;;;;;;;22.00;50.88;97532.63;5030994;28;20205;-31
2022/11/14 01:08:42;;;;;;;4.80;4.40;;;;;;;22.01;51.07;97528.34;5025771;28;20198;-31
2022/11/14 01:11:11;;;;;;;4.77;4.37;;;;;;;22.01;50.88;97525.78;5026954;28;20467;-31
2022/11/14 01:13:38;;;;;;;4.70;4.30;;;;;;;22.01;50.78;97531.78;5026576;28;20225;-31
2022/11/14 01:16:05;;;;;;;4.80;4.40;;;;;;;21.99;50.67;97524.91;5025406;28;20216;-31
2022/11/14 01:18:31;;;;;;;4.93;4.53;;;;;;;22.02;50.66;97520.72;5023754;28;20194;-32
2022/11/14 01:20:58;;;;;;;4.30;3.93;;;;;;;22.02;50.82;97527.56;5021403;28;20222;-31
2022/11/14 01:23:24;;;;;;;5.20;4.70;;;;;;;22.01;50.64;97536.03;5028855;28;20222;-31
2022/11/14 01:25:51;;;;;;;4.30;4.00;;;;;;;22.02;50.96;97532.66;5030634;28;20210;-31
2022/11/14 01:28:18;;;;;;;5.00;4.50;;;;;;;22.02;50.82;97542.91;5031764;28;20198;-31
2022/11/14 01:30:44;;;;;;;5.03;4.63;;;;;;;22.02;51.04;97537.78;5028698;28;20209;-32
2022/11/14 01:33:11;;;;;;;4.70;4.30;;;;;;;21.98;51.00;97526.59;5029841;28;20228;-32
2022/11/14 01:35:37;;;;;;;4.20;3.90;;;;;;;21.99;51.09;97524.91;5027202;28;20204;-31
2022/11/14 01:38:04;;;;;;;4.73;4.33;;;;;;;21.98;50.93;97524.03;5023449;28;20202;-31
2022/11/14 01:40:31;;;;;;;4.87;4.40;;;;;;;22.01;50.84;97525.78;5023165;28;20221;-31
2022/11/14 01:43:09;;;;;;;4.73;4.33;;;;;;;22.02;50.87;97530.97;5029137;28;20579;-31
2022/11/14 01:45:50;;;;;;;4.80;4.40;;;;;;;22.02;50.84;97537.78;5027458;28;20202;-31
2022/11/14 01:48:21;;;;;;;4.70;4.30;;;;;;;21.97;50.76;97524.00;5029434;28;20687;-31
2022/11/14 01:50:51;;;;;;;4.50;4.20;;;;;;;22.02;50.72;97523.28;5026908;28;20666;-31
2022/11/14 01:53:18;;;;;;;5.00;4.60;;;;;;;22.03;50.67;97526.72;5017289;28;20221;-31
2022/11/14 01:55:44;;;;;;;4.43;4.07;;;;;;;21.95;50.83;97510.28;5030930;28;20213;-31
2022/11/14 01:58:11;;;;;;;4.50;4.10;;;;;;;21.99;50.96;97519.78;5031355;28;20696;-32
2022/11/14 02:00:37;;;;;;;4.90;4.50;;;;;;;22.01;50.74;97524.13;5014393;28;20596;-31
2022/11/14 02:03:04;;;;;;;4.80;4.40;;;;;;;22.02;50.88;97519.88;5029345;28;20233;-31
2022/11/14 02:05:30;;;;;;;4.63;4.23;;;;;;;22.01;50.74;97521.56;5029936;28;20194;-31
2022/11/14 02:07:57;;;;;;;4.60;4.20;;;;;;;22.02;51.23;97517.31;5051208;28;20204;-31
2022/11/14 02:10:23;;;;;;;5.03;4.57;;;;;;;21.96;50.77;97507.75;5033769;28;20205;-31
2022/11/14 02:12:50;;;;;;;4.67;4.27;;;;;;;22.01;50.97;97513.88;5030066;28;20217;-31
2022/11/14 02:15:17;;;;;;;4.23;3.93;;;;;;;21.94;50.92;97500.88;5028080;28;20580;-31
2022/11/14 02:17:43;;;;;;;4.67;4.27;;;;;;;22.01;51.27;97519.00;5028364;28;20220;-31
2022/11/14 02:20:10;;;;;;;4.83;4.43;;;;;;;22.01;51.06;97520.69;5060738;28;20201;-31
2022/11/14 02:22:40;;;;;;;4.47;4.07;;;;;;;22.02;50.83;97519.88;5029525;28;20925;-31
2022/11/14 02:25:08;;;;;;;4.60;4.20;;;;;;;21.99;51.04;97528.31;5032612;28;20205;-31
2022/11/14 02:27:34;;;;;;;4.50;4.10;;;;;;;21.97;50.87;97524.00;5028071;28;20216;-31
2022/11/14 02:30:05;;;;;;;4.40;4.00;;;;;;;21.91;50.98;97511.03;5042317;28;20197;-32
2022/11/14 02:32:32;;;;;;;5.03;4.63;;;;;;;22.00;50.82;97511.28;5029181;28;20614;-31
2022/11/14 02:35:18;;;;;;;4.00;3.70;;;;;;;22.01;50.84;97529.25;5025939;28;20202;-31
2022/11/14 02:37:45;;;;;;;4.40;4.00;;;;;;;22.01;50.98;97519.00;5026392;28;20202;-31
2022/11/14 02:40:11;;;;;;;4.27;3.93;;;;;;;22.02;50.66;97530.97;5026504;28;20202;-31
2022/11/14 02:42:38;;;;;;;4.33;3.93;;;;;;;22.01;50.83;97528.34;5026678;28;20218;-31
2022/11/14 02:45:05;;;;;;;4.20;3.80;;;;;;;22.01;50.88;97534.34;5026569;28;20209;-31
2022/11/14 02:47:32;;;;;;;4.33;3.93;;;;;;;21.96;50.87;97525.66;5026673;28;20568;-32
2022/11/14 02:49:58;;;;;;;4.60;4.20;;;;;;;22.02;50.96;97522.44;5034159;28;20212;-31
2022/11/14 02:52:25;;;;;;;4.40;4.00;;;;;;;21.98;50.92;97516.34;5024733;28;20222;-31
2022/11/14 02:54:51;;;;;;;4.40;4.00;;;;;;;22.01;50.82;97526.69;5030061;28;20665;-31
2022/11/14 02:57:20;;;;;;;4.00;3.70;;;;;;;22.01;50.72;97515.56;5025746;28;20237;-31
2022/11/14 02:59:46;;;;;;;5.10;4.60;;;;;;;22.01;51.03;97500.22;5029526;28;20209;-31
2022/11/14 03:02:13;;;;;;;5.20;3.77;;;;;;;22.01;50.85;97497.66;5025525;28;20234;-31
2022/11/14 03:04:39;;;;;;;4.70;4.30;;;;;;;22.00;50.73;97483.13;5028045;28;20208;-31
2022/11/14 03:07:06;;;;;;;4.03;3.73;;;;;;;22.03;50.75;97483.22;5030895;28;20202;-31
2022/11/14 03:09:32;;;;;;;3.97;3.67;;;;;;;21.97;50.63;97468.56;5026590;28;20552;-31
2022/11/14 03:11:59;;;;;;;4.30;4.00;;;;;;;22.01;50.57;97493.41;5031815;28;20204;-32
2022/11/14 03:14:25;;;;;;;4.40;4.00;;;;;;;22.02;50.66;97491.72;5029696;28;20201;-31
2022/11/14 03:16:54;;;;;;;4.00;3.70;;;;;;;22.01;50.65;97485.72;5027695;28;20213;-32
2022/11/14 03:19:20;;;;;;;4.00;3.70;;;;;;;22.01;50.57;97485.72;5024822;28;20681;-32
2022/11/14 03:21:47;;;;;;;4.10;3.80;;;;;;;22.00;50.91;97499.38;5029353;28;20233;-31
2022/11/14 03:24:13;;;;;;;4.47;4.10;;;;;;;21.95;50.70;97498.34;5027540;28;20217;-31
2022/11/14 03:26:40;;;;;;;3.90;3.60;;;;;;;21.99;50.84;97500.16;5027250;28;20285;-31
2022/11/14 03:29:06;;;;;;;4.10;3.77;;;;;;;22.00;50.77;97499.38;5027849;28;20204;-31
2022/11/14 03:31:33;;;;;;;3.80;3.50;;;;;;;22.00;50.96;97493.38;5026629;28;20198;-32
2022/11/14 03:33:59;;;;;;;4.60;4.20;;;;;;;21.98;50.84;97503.56;5026594;28;20225;-31
2022/11/14 03:36:26;;;;;;;4.27;3.87;;;;;;;21.99;51.34;97507.84;5028238;28;20197;-31
2022/11/14 03:38:52;;;;;;;3.90;3.60;;;;;;;21.99;50.89;97504.44;5052438;28;20839;-31
2022/11/14 03:41:19;;;;;;;4.30;3.90;;;;;;;22.00;51.00;97504.47;5027039;28;20225;-31
2022/11/14 03:43:46;;;;;;;4.27;3.90;;;;;;;22.00;50.91;97490.81;5024057;28;20230;-31
2022/11/14 03:46:12;;;;;;;4.10;3.80;;;;;;;21.96;50.90;97484.72;5026072;28;20552;-31
2022/11/14 03:48:39;;;;;;;3.83;3.53;;;;;;;22.00;50.70;97490.81;5026912;28;20201;-31
2022/11/14 03:51:05;;;;;;;3.93;3.63;;;;;;;21.97;50.63;97490.72;5028841;28;20195;-31
2022/11/14 03:53:32;;;;;;;4.03;3.70;;;;;;;22.00;50.81;97491.69;5031923;28;20221;-31
2022/11/14 03:55:58;;;;;;;4.13;3.83;;;;;;;22.01;50.86;97495.09;5034195;28;20227;-32
2022/11/14 03:58:25;;;;;;;3.93;3.63;;;;;;;22.00;51.01;97480.56;5036960;28;20216;-31
2022/11/14 04:00:54;;;;;;;3.90;3.60;;;;;;;22.01;51.01;97472.06;5031735;28;20750;-32
2022/11/14 04:03:22;;;;;;;4.37;4.03;;;;;;;22.00;50.76;97462.66;5026110;28;20669;-32
2022/11/14 04:05:48;;;;;;;4.00;3.70;;;;;;;22.00;50.95;97467.78;5030890;28;20584;-32
2022/11/14 04:08:15;;;;;;;3.90;3.60;;;;;;;21.96;50.88;97468.53;5023918;28;20632;-31
2022/11/14 04:10:41;;;;;;;4.03;3.73;;;;;;;22.00;51.01;97478.00;5029579;28;20194;-31
2022/11/14 04:13:08;;;;;;;3.83;3.53;;;;;;;21.99;51.09;97466.91;5030309;28;20610;-31
2022/11/14 04:15:34;;;;;;;3.90;3.60;;;;;;;21.97;50.97;97473.69;5028766;28;20198;-32
2022/11/14 04:18:01;;;;;;;4.17;3.77;;;;;;;21.99;50.89;97481.41;5027240;28;20228;-31
2022/11/14 04:20:27;;;;;;;4.07;3.77;;;;;;;21.99;51.12;97489.09;5056876;28;20208;-31
2022/11/14 04:22:54;;;;;;;4.27;3.87;;;;;;;21.99;51.00;97496.75;5030516;28;20232;-32
2022/11/14 04:25:21;;;;;;;4.03;3.73;;;;;;;21.97;51.04;97499.28;5056215;28;20297;-32
2022/11/14 04:27:47;;;;;;;3.73;3.43;;;;;;;21.95;51.15;97480.44;5029156;28;20565;-31
2022/11/14 04:30:14;;;;;;;3.70;3.40;;;;;;;21.99;51.05;97487.38;5026174;28;20213;-32
2022/11/14 04:32:40;;;;;;;4.00;3.70;;;;;;;22.00;50.90;97481.44;5031689;28;20564;-31
2022/11/14 04:35:07;;;;;;;4.33;3.87;;;;;;;22.01;50.88;97482.28;5028799;28;20212;-31
2022/11/14 04:37:34;;;;;;;3.93;3.63;;;;;;;22.00;50.68;97483.13;5028777;28;20213;-31
2022/11/14 04:40:01;;;;;;;3.47;3.17;;;;;;;22.00;50.75;97485.69;5027188;28;20209;-31
2022/11/14 04:42:28;;;;;;;4.37;3.97;;;;;;;22.00;51.10;97493.38;5026892;28;20719;-31
2022/11/14 04:44:54;;;;;;;3.80;3.50;;;;;;;22.01;51.03;97490.84;5028554;28;20652;-32
2022/11/14 04:47:21;;;;;;;3.87;3.50;;;;;;;22.01;50.97;97489.97;5027592;28;20194;-31
2022/11/14 04:49:47;;;;;;;4.00;3.70;;;;;;;22.01;51.00;97495.09;5027619;28;20202;-31
2022/11/14 04:52:14;;;;;;;3.97;3.67;;;;;;;22.00;50.88;97496.81;5026747;28;20245;-32
2022/11/14 04:54:40;;;;;;;3.80;3.50;;;;;;;21.98;50.93;97498.44;5029586;28;20194;-31
2022/11/14 04:57:07;;;;;;;3.90;3.60;;;;;;;21.96;50.82;97494.13;5029667;28;20212;-31
2022/11/14 04:59:33;;;;;;;3.43;3.13;;;;;;;22.01;50.97;97503.66;5026540;28;20711;-31
2022/11/14 05:02:00;;;;;;;3.70;3.40;;;;;;;22.02;51.04;97495.13;5030725;28;20228;-31
2022/11/14 05:04:27;;;;;;;4.00;3.60;;;;;;;22.03;50.80;97493.44;5029293;28;20220;-31
2022/11/14 05:06:53;;;;;;;3.60;3.30;;;;;;;22.03;50.38;97481.53;5029613;28;20228;-31
2022/11/14 05:09:20;;;;;;;3.93;3.63;;;;;;;22.03;50.60;97483.22;5025964;28;20193;-31
2022/11/14 05:11:47;;;;;;;4.17;3.87;;;;;;;22.04;50.29;97469.56;5033367;28;20202;-32
2022/11/14 05:14:13;;;;;;;4.00;3.60;;;;;;;22.03;50.47;97470.41;5030150;28;20213;-31
2022/11/14 05:16:40;;;;;;;3.67;3.37;;;;;;;22.03;50.49;97455.94;5030703;28;20205;-31
2022/11/14 05:19:06;;;;;;;4.07;3.77;;;;;;;22.03;50.74;97462.75;5028183;28;20194;-31
2022/11/14 05:21:33;;;;;;;3.67;3.37;;;;;;;22.02;50.39;97461.88;5031026;28;20224;-31
2022/11/14 05:23:59;;;;;;;3.50;3.20;;;;;;;22.01;50.52;97460.13;5030754;28;20225;-32
2022/11/14 05:26:26;;;;;;;3.50;3.20;;;;;;;22.03;50.39;97468.72;5032344;28;20580;-31
2022/11/14 05:28:52;;;;;;;3.60;3.30;;;;;;;22.03;50.56;97472.97;5029673;28;20214;-31
2022/11/14 05:31:19;;;;;;;3.40;3.10;;;;;;;22.01;50.49;97472.94;5028889;28;20200;-31
2022/11/14 05:33:46;;;;;;;3.47;3.27;;;;;;;22.04;50.44;97467.03;5029077;28;20225;-32
2022/11/14 05:36:14;;;;;;;3.17;2.97;;;;;;;22.04;50.62;97451.66;5034503;28;20193;-31
2022/11/14 05:38:40;;;;;;;3.43;3.23;;;;;;;22.03;50.54;97455.94;5030527;28;20202;-32
2022/11/14 05:41:11;;;;;;;3.77;3.47;;;;;;;22.03;50.58;97447.38;5034891;28;20193;-31
2022/11/14 05:43:37;;;;;;;4.33;3.93;;;;;;;22.04;50.70;97444.88;5037143;28;20224;-32
2022/11/14 05:46:05;;;;;;;3.90;3.60;;;;;;;22.04;50.80;97436.31;5031293;28;20606;-31
2022/11/14 05:48:32;;;;;;;3.60;3.30;;;;;;;22.01;50.93;97418.31;5021234;28;20220;-31
2022/11/14 05:51:00;;;;;;;4.20;3.80;;;;;;;22.02;50.84;97410.69;5032008;28;20202;-31
2022/11/14 05:53:27;;;;;;;3.70;3.40;;;;;;;22.03;50.96;97409.88;5033508;28;20225;-31
2022/11/14 05:55:54;;;;;;;3.50;3.20;;;;;;;22.03;50.82;97429.47;5031942;28;20197;-32
2022/11/14 05:58:21;;;;;;;4.07;3.77;;;;;;;21.96;50.61;97442.94;5031289;28;20573;-31
2022/11/14 06:00:47;;;;;;;5.83;5.23;;;;;;;22.02;49.20;97472.09;5028718;28;20669;-32
2022/11/14 06:03:19;;;;;;;5.20;4.80;;;;;;;22.02;49.20;97482.34;5022668;28;20620;-32
2022/11/14 06:05:46;;;;;;;6.53;5.00;;;;;;;21.97;49.82;97494.16;5030079;28;20684;-31
2022/11/14 06:08:12;;;;;;;4.77;4.37;;;;;;;22.03;49.88;97522.47;5033223;28;20292;-31
2022/11/14 06:10:39;;;;;;;5.97;5.37;;;;;;;22.03;49.99;97521.59;5032213;28;20202;-32
2022/11/14 06:13:05;;;;;;;5.23;4.73;;;;;;;22.03;49.73;97511.38;5036530;28;20217;-32
2022/11/14 06:15:32;;;;;;;5.07;4.67;;;;;;;22.03;50.03;97506.25;5037576;28;20205;-32
2022/11/14 06:17:59;;;;;;;4.60;4.20;;;;;;;22.03;50.28;97519.03;5036135;28;20638;-35
2022/11/14 06:20:25;;;;;;;4.37;4.03;;;;;;;22.04;50.12;97513.09;5022584;28;20202;-32
2022/11/14 06:22:54;;;;;;;6.07;5.30;;;;;;;22.04;49.67;97523.31;5035214;28;20221;-31
2022/11/14 06:25:21;;;;;;;6.57;5.97;;;;;;;22.04;48.97;97529.31;5037515;28;20656;-31
2022/11/14 06:27:47;;;;;;;6.87;6.27;;;;;;;22.03;47.01;97539.50;5034222;28;20236;-32
2022/11/14 06:30:14;;;;;;;8.40;7.07;;;;;;;22.03;45.75;97540.41;5034030;28;20206;-32
2022/11/14 06:32:41;;;;;;;7.70;7.00;;;;;;;22.02;44.76;97543.75;5032691;28;20221;-32
2022/11/14 06:35:07;;;;;;;8.00;7.20;;;;;;;22.00;44.06;97536.88;5034396;28;20208;-31
2022/11/14 06:37:37;;;;;;;7.70;6.93;;;;;;;22.01;43.62;97534.34;5032422;28;20198;-32
2022/11/14 06:40:04;;;;;;;7.20;6.47;;;;;;;22.00;43.50;97553.09;5033853;28;20670;-31
2022/11/14 06:42:30;;;;;;;7.13;6.53;;;;;;;21.99;43.33;97561.59;5035238;28;20225;-31
2022/11/14 06:44:57;;;;;;;7.80;7.00;;;;;;;21.98;43.25;97569.22;5033864;28;20211;-32
2022/11/14 06:47:23;;;;;;;7.53;6.93;;;;;;;21.98;43.52;97574.34;5032626;28;20202;-31
2022/11/14 06:49:50;;;;;;;6.90;6.30;;;;;;;21.98;43.69;97572.66;5033454;28;20213;-31
2022/11/14 06:52:16;;;;;;;6.80;6.20;;;;;;;21.98;44.77;97570.09;5034566;28;20217;-31
2022/11/14 06:54:43;;;;;;;7.00;5.90;;;;;;;21.97;45.11;97559.81;5033890;28;20672;-31
2022/11/14 06:57:09;;;;;;;6.43;5.83;;;;;;;21.97;45.80;97567.50;5032913;28;20217;-35
2022/11/14 06:59:36;;;;;;;6.60;6.00;;;;;;;21.95;46.03;97562.34;5045157;28;20687;-32
2022/11/14 07:02:02;;;;;;;6.23;5.73;;;;;;;21.96;46.24;97571.72;5035877;28;20255;-31
2022/11/14 07:04:29;;;;;;;5.97;5.47;;;;;;;21.96;46.52;97576.84;5029706;28;20576;-32
2022/11/14 07:06:56;;;;;;;5.73;5.27;;;;;;;21.97;46.88;97575.16;5033400;28;20213;-31
2022/11/14 07:09:22;;;;;;;6.63;5.00;;;;;;;21.97;46.81;97580.28;5023239;28;20198;-32
2022/11/14 07:11:49;;;;;;;5.20;4.80;;;;;;;21.97;46.88;97577.72;5029178;28;20662;-31
2022/11/14 07:14:15;;;;;;;5.10;4.60;;;;;;;21.98;46.98;97576.91;5029023;28;20214;-31
2022/11/14 07:16:42;;;;;;;16.50;5.40;;;;;;;21.98;44.89;97571.78;5028763;28;20209;-32
2022/11/14 07:19:08;;;;;;;7.37;5.53;;;;;;;21.95;44.82;97564.00;5033048;28;20209;-31
2022/11/14 07:21:35;;;;;;;6.50;5.20;;;;;;;21.95;45.26;97561.44;5032083;28;20212;-32
2022/11/14 07:24:02;;;;;;;5.23;4.83;;;;;;;21.99;46.05;97568.41;5035216;28;20222;-32
2022/11/14 07:26:28;;;;;;;5.97;4.50;;;;;;;21.96;46.16;97563.22;5028801;28;20212;-32
2022/11/14 07:28:55;;;;;;;5.97;4.83;;;;;;;22.00;46.23;97575.25;5028499;28;20198;-32
2022/11/14 07:31:28;;;;;;;6.07;4.90;;;;;;;21.96;46.58;97551.25;5028396;28;20205;-32
2022/11/14 07:33:54;;;;;;;4.87;4.47;;;;;;;22.00;46.78;97559.91;5009968;28;20240;-33
2022/11/14 07:36:21;;;;;;;4.60;4.20;;;;;;;22.01;46.97;97561.63;5020606;28;20865;-31
2022/11/14 07:38:47;;;;;;;4.50;4.13;;;;;;;22.01;47.02;97549.72;5032758;28;20238;-32
2022/11/14 07:41:14;;;;;;;4.57;4.17;;;;;;;21.96;46.72;97538.47;5031631;28;20204;-31
2022/11/14 07:43:41;;;;;;;5.33;4.27;;;;;;;22.02;46.97;97548.88;5030442;28;20248;-32
2022/11/14 07:46:13;;;;;;;4.40;4.00;;;;;;;21.35;47.04;97435.25;5033752;28;20201;-31
2022/11/14 07:48:40;;;;;;;7.57;5.30;;;;;;;22.02;44.68;97541.19;5033570;28;20204;-31
2022/11/14 07:51:08;;;;;;;9.07;6.10;;;;;;;22.01;42.73;97536.91;5025216;28;20216;-32
2022/11/14 07:53:35;;;;;;;6.80;5.10;;;;;;;22.00;42.87;97524.97;5023211;28;20218;-34
2022/11/14 07:56:03;;;;;;;11.40;5.97;;;;;;;22.00;43.66;97521.50;5025104;28;20209;-33
2022/11/14 07:58:30;;;;;;;5.20;4.80;;;;;;;21.96;44.37;97514.59;5023024;28;20201;-32
2022/11/14 08:01:01;;;;;;;5.97;5.37;;;;;;;21.93;44.73;97511.94;5022134;28;20214;-31
2022/11/14 08:03:28;;;;;;;8.53;5.17;;;;;;;21.92;45.01;97517.88;5029662;28;20233;-32
2022/11/14 08:06:02;;;;;;;7.87;4.73;;;;;;;21.93;45.40;97523.03;5024062;28;20205;-33
2022/11/14 08:08:28;;;;;;;5.73;5.00;;;;;;;21.97;45.64;97518.88;5025904;28;20211;-31
2022/11/14 08:10:59;;;;;;;5.03;4.43;;;;;;;21.93;45.82;97514.50;5021787;28;20212;-32
2022/11/14 08:13:26;;;;;;;5.93;4.37;;;;;;;21.96;46.00;97517.16;5024031;28;20218;-32
2022/11/14 08:16:03;;;;;;;5.30;4.73;;;;;;;21.94;46.32;97514.56;5022864;28;20233;-32
2022/11/14 08:18:37;;;;;;;7.50;4.63;;;;;;;21.90;46.47;97509.31;5026625;28;20694;-31
2022/11/14 08:21:04;;;;;;;4.60;3.97;;;;;;;21.96;46.61;97519.72;5019232;28;20196;-32
2022/11/14 08:23:32;;;;;;;4.30;3.90;;;;;;;21.91;46.77;97523.81;5028760;28;20240;-31
2022/11/14 08:25:58;;;;;;;5.67;3.40;;;;;;;21.89;46.89;97534.00;5035620;28;20240;-32
2022/11/14 08:28:25;;;;;;;4.17;3.77;;;;;;;21.97;47.32;97535.09;5031381;28;20213;-32
2022/11/14 08:30:52;;;;;;;3.73;3.43;;;;;;;21.98;47.06;97524.03;5025600;28;20268;-31
2022/11/14 08:33:18;;;;;;;4.10;3.67;;;;;;;21.98;47.20;97518.03;5003584;28;20213;-32
2022/11/14 08:35:45;;;;;;;3.87;3.47;;;;;;;21.99;47.26;97522.34;5024579;28;20590;-32
2022/11/14 08:38:11;;;;;;;3.73;3.43;;;;;;;21.97;47.75;97524.00;5015588;28;20253;-33
2022/11/14 08:40:38;;;;;;;3.37;2.90;;;;;;;21.99;47.38;97510.41;5035399;28;20203;-31
2022/11/14 08:43:05;;;;;;;3.80;3.33;;;;;;;21.98;47.27;97500.13;5024450;28;20692;-31
2022/11/14 08:45:31;;;;;;;3.50;3.00;;;;;;;22.00;47.97;97501.91;5021535;28;20376;-31
2022/11/14 08:47:58;;;;;;;6.80;3.23;;;;;;;22.02;47.68;97507.09;5018296;28;20212;-32
2022/11/14 08:50:24;;;;;;;3.00;2.70;;;;;;;21.99;47.73;97495.06;5023590;28;20611;-32
2022/11/14 08:52:51;;;;;;;4.60;3.30;;;;;;;22.02;47.92;97509.63;5029036;28;20224;-32
2022/11/14 08:55:18;;;;;;;3.00;2.80;;;;;;;22.02;47.59;97500.25;5024089;28;20202;-32
2022/11/14 08:57:45;;;;;;;3.07;2.87;;;;;;;22.02;47.18;97509.63;5021654;28;20213;-31
2022/11/14 09:00:15;;;;;;;3.53;2.73;;;;;;;22.03;47.88;97519.03;5020994;28;20695;-32
2022/11/14 09:02:42;;;;;;;2.90;2.70;;;;;;;22.02;47.92;97509.63;5020039;28;20225;-32
2022/11/14 09:05:08;;;;;;;2.73;2.53;;;;;;;22.02;48.13;97505.38;5025509;28;20554;-33
2022/11/14 09:07:35;;;;;;;3.33;3.00;;;;;;;21.97;47.93;97503.53;5019980;28;20201;-32
2022/11/14 09:10:01;;;;;;;3.10;2.50;;;;;;;22.01;48.17;97516.44;5022859;28;20208;-32
2022/11/14 09:12:28;;;;;;;2.70;2.50;;;;;;;22.03;48.20;97534.41;5017277;28;20209;-33
2022/11/14 09:14:55;;;;;;;2.87;2.67;;;;;;;22.02;48.31;97546.31;5025428;28;20240;-32
2022/11/14 09:17:21;;;;;;;3.10;2.90;;;;;;;22.02;48.24;97535.22;5033736;28;20703;-32
2022/11/14 09:19:50;;;;;;;2.93;2.70;;;;;;;22.02;48.53;97532.66;5038034;28;20233;-32
2022/11/14 09:22:17;;;;;;;3.20;2.90;;;;;;;22.03;48.41;97542.06;5034379;28;20236;-31
2022/11/14 09:24:46;;;;;;;2.73;2.53;;;;;;;21.98;48.63;97549.63;5026375;28;20216;-31
2022/11/14 09:27:13;;;;;;;4.80;2.50;;;;;;;21.96;48.76;97545.31;5037998;28;20205;-31
2022/11/14 09:29:39;;;;;;;4.27;2.60;;;;;;;22.02;48.36;97553.16;5032140;28;20571;-31
2022/11/14 09:32:06;;;;;;;2.90;2.70;;;;;;;22.04;48.56;97554.03;5021942;28;20204;-31
2022/11/14 09:34:32;;;;;;;2.73;2.53;;;;;;;22.04;48.30;97539.56;5028570;28;20584;-32
2022/11/14 09:36:59;;;;;;;3.07;2.27;;;;;;;22.05;48.54;97535.31;5038847;28;20201;-32
2022/11/14 09:39:25;;;;;;;3.03;2.60;;;;;;;22.05;48.69;97537.88;5037327;28;20197;-34
2022/11/14 09:42:11;;;;;;;2.73;2.53;;;;;;;22.06;48.58;97539.59;5023383;28;20210;-32
2022/11/14 09:44:42;;;;;;;2.80;2.60;;;;;;;22.05;48.55;97543.00;5030489;28;20640;-32
2022/11/14 09:47:11;;;;;;;3.97;2.60;;;;;;;22.05;48.63;97553.22;5029108;28;20201;-32
2022/11/14 09:49:46;;;;;;;7.10;6.40;;;;;;;21.96;45.56;97547.84;5014054;28;20685;-32
2022/11/14 09:52:24;;;;;;;7.63;6.83;;;;;;;22.03;44.68;97558.31;5030920;28;20216;-32
2022/11/14 09:54:55;;;;;;;11.87;7.47;;;;;;;22.02;43.73;97571.06;5021423;28;20209;-32
2022/11/14 09:57:22;;;;;;;8.67;6.63;;;;;;;21.98;43.84;97574.34;5004844;28;20201;-32
2022/11/14 09:59:48;;;;;;;7.30;6.60;;;;;;;21.90;44.60;97558.78;5012279;28;20229;-32
2022/11/14 10:02:35;;;;;;;8.73;6.37;;;;;;;21.96;45.00;97571.72;5003959;28;20615;-31
2022/11/14 10:05:12;;;;;;;6.97;6.27;;;;;;;21.99;45.66;97563.31;5023072;28;20239;-32
2022/11/14 10:08:04;;;;;;;6.50;5.90;;;;;;;21.98;45.82;97561.53;5027192;28;20675;-31
2022/11/14 10:10:47;;;;;;;6.03;5.43;;;;;;;21.89;46.24;97557.03;5023745;28;20221;-31
2022/11/14 10:13:51;;;;;;;7.17;6.17;;;;;;;21.97;46.25;97576.06;5005988;28;20228;-31
2022/11/14 10:17:05;;;;;;;6.87;6.27;;;;;;;21.97;46.20;97565.81;5030518;28;20219;-32
2022/11/14 10:19:41;;;;;;;8.60;5.47;;;;;;;21.98;46.51;97567.53;5013915;28;20284;-32
2022/11/14 10:22:43;;;;;;;9.23;6.70;;;;;;;21.98;46.06;97566.66;5022226;28;20579;-31
2022/11/14 10:25:36;;;;;;;7.20;6.50;;;;;;;21.98;46.13;97572.66;5007022;28;20223;-32
2022/11/14 10:28:28;;;;;;;8.33;5.87;;;;;;;21.90;46.37;97555.38;5047707;28;20193;-31
2022/11/14 10:31:15;;;;;;;7.10;6.13;;;;;;;21.98;46.83;97570.09;5038015;28;20646;-31
2022/11/14 10:34:10;;;;;;;7.97;6.47;;;;;;;21.97;46.34;97565.81;5017184;28;20217;-31
2022/11/14 10:36:58;;;;;;;7.70;6.07;;;;;;;21.97;46.58;97568.38;5026947;28;20194;-31
2022/11/14 10:39:38;;;;;;;6.80;6.07;;;;;;;21.97;46.91;97564.94;5037634;28;20201;-32
2022/11/14 10:42:14;;;;;;;9.97;6.37;;;;;;;21.97;47.06;97554.69;5028333;28;20243;-32
2022/11/14 10:44:49;;;;;;;8.20;5.90;;;;;;;21.97;47.09;97559.81;5028808;28;20204;-31
2022/11/14 10:47:17;;;;;;;5.90;5.30;;;;;;;21.88;47.22;97544.22;5026659;28;20201;-31
2022/11/14 10:49:43;;;;;;;8.50;5.73;;;;;;;21.97;47.25;97559.81;5029511;28;20209;-31
2022/11/14 10:52:12;;;;;;;6.47;5.80;;;;;;;21.98;47.47;97556.41;4994570;28;20194;-31
2022/11/14 10:55:02;;;;;;;7.83;6.30;;;;;;;21.97;46.79;97555.56;5029871;28;20673;-32
2022/11/14 10:57:28;;;;;;;8.80;6.97;;;;;;;21.98;46.60;97561.53;5031726;28;20951;-31
2022/11/14 10:59:55;;;;;;;8.23;7.27;;;;;;;21.97;46.71;97558.13;5012946;28;20205;-31
2022/11/14 11:02:21;;;;;;;9.17;7.07;;;;;;;21.91;46.67;97555.41;5033935;28;20226;-31
2022/11/14 11:04:48;;;;;;;7.50;6.40;;;;;;;21.99;47.12;97561.59;5022808;28;20213;-31
2022/11/14 11:13:10;;;;;;;10.07;6.40;;;;;;;22.01;47.39;97585.53;5028725;28;20603;-31
2022/11/14 11:15:40;;;;;;;6.63;5.93;;;;;;;22.01;47.37;97575.31;5028953;28;20196;-31
2022/11/14 11:18:31;;;;;;;7.40;5.83;;;;;;;22.00;47.52;97591.50;5027020;28;20205;-31
2022/11/14 11:21:01;;;;;;;6.60;5.90;;;;;;;22.00;47.63;97601.72;5026549;28;20197;-31
2022/11/14 11:23:28;;;;;;;7.80;5.90;;;;;;;22.01;47.69;97602.56;5027044;28;20331;-31
2022/11/14 11:26:07;;;;;;;8.70;5.90;;;;;;;21.81;47.74;97561.06;5032998;28;20208;-31
2022/11/14 11:28:35;;;;;;;8.03;5.87;;;;;;;22.01;47.79;97590.66;5027805;28;20276;-31
2022/11/14 11:31:09;;;;;;;6.53;5.53;;;;;;;21.93;47.84;97578.47;5031773;28;20197;-31
2022/11/14 11:33:37;;;;;;;6.37;5.40;;;;;;;22.02;47.81;97601.78;5025027;28;20217;-31
2022/11/14 11:36:17;;;;;;;7.13;5.60;;;;;;;22.01;47.97;97603.44;5024905;28;20557;-31
2022/11/14 11:38:43;;;;;;;7.07;5.13;;;;;;;21.96;48.00;97587.09;5022577;28;20224;-32
2022/11/14 11:41:30;;;;;;;5.93;5.33;;;;;;;22.03;47.79;97606.06;5039798;28;20201;-32
2022/11/14 11:44:17;;;;;;;7.47;5.43;;;;;;;22.00;47.71;97605.97;5036580;28;20227;-31
2022/11/14 11:46:43;;;;;;;9.13;5.70;;;;;;;22.03;47.88;97595.81;5025332;28;20201;-31